Time;durP1;ratioP1;P1;durP2;ratioP2;P2;SDS_P1;SDS_P2;PMS_P1;PMS_P2;Temp;Humidity;BMP_temperature;BMP_pressure;BME280_temperature;BME280_humidity;BME280_pressure;Samples;Min_cycle;Max_cycle;Signal;HPM_P1;HPM_P2
2021/11/27 00:00:42;;;;;;;3.25;1.30;;;14.90;65.40;;;;;;4185337;28;20107;-69
2021/11/27 00:02:46;;;;;;;1.43;1.03;;;14.80;65.40;;;;;;4174772;28;20049;-67
2021/11/27 00:04:51;;;;;;;3.42;1.48;;;14.80;65.40;;;;;;4175038;28;20909;-68
2021/11/27 00:06:54;;;;;;;5.53;1.83;;;14.80;65.40;;;;;;4181160;28;20103;-69
2021/11/27 00:08:57;;;;;;;2.60;1.23;;;14.80;65.50;;;;;;4190549;28;20053;-69
2021/11/27 00:11:00;;;;;;;3.45;1.50;;;14.80;65.50;;;;;;4179667;28;20052;-70
2021/11/27 00:13:05;;;;;;;4.90;1.57;;;14.80;65.40;;;;;;4189868;28;20055;-71
2021/11/27 00:15:10;;;;;;;3.40;1.70;;;14.70;65.40;;;;;;4187570;28;20736;-68
2021/11/27 00:17:14;;;;;;;4.63;1.60;;;14.80;65.50;;;;;;4180979;28;20108;-69
2021/11/27 00:19:17;;;;;;;3.45;1.35;;;14.70;65.50;;;;;;4189592;28;20055;-69
2021/11/27 00:21:22;;;;;;;3.08;1.30;;;14.70;65.40;;;;;;4186356;28;20045;-71
2021/11/27 00:23:26;;;;;;;4.75;1.55;;;14.70;65.50;;;;;;4174837;28;20108;-67
2021/11/27 00:25:29;;;;;;;4.47;1.63;;;14.70;65.50;;;;;;4176154;28;20049;-67
2021/11/27 00:27:32;;;;;;;4.60;1.35;;;14.70;65.50;;;;;;4183227;28;20053;-70
2021/11/27 00:29:35;;;;;;;4.38;1.67;;;14.70;65.50;;;;;;4173818;28;20105;-67
2021/11/27 00:31:41;;;;;;;4.45;1.63;;;14.70;65.50;;;;;;4184096;28;20051;-69
2021/11/27 00:33:46;;;;;;;6.70;1.90;;;14.60;65.40;;;;;;4174615;28;20046;-68
2021/11/27 00:35:49;;;;;;;3.83;1.48;;;14.70;65.50;;;;;;4175794;28;20056;-68
2021/11/27 00:37:56;;;;;;;3.80;1.70;;;14.70;65.60;;;;;;4183319;28;20261;-68
2021/11/27 00:39:59;;;;;;;3.30;1.48;;;14.60;65.60;;;;;;4173690;28;20113;-70
2021/11/27 00:42:02;;;;;;;3.67;1.83;;;14.60;65.50;;;;;;4183826;28;20049;-70
2021/11/27 00:44:05;;;;;;;3.13;1.52;;;14.60;65.60;;;;;;4174796;28;20120;-67
2021/11/27 00:46:08;;;;;;;5.10;1.98;;;14.60;65.60;;;;;;4175181;28;20083;-67
2021/11/27 00:48:12;;;;;;;3.05;1.42;;;14.60;65.50;;;;;;4183035;28;20049;-70
2021/11/27 00:50:18;;;;;;;3.72;1.40;;;14.60;65.60;;;;;;4173335;28;20116;-70
2021/11/27 00:52:22;;;;;;;4.55;1.80;;;14.60;65.60;;;;;;4184182;28;20351;-69
2021/11/27 00:54:27;;;;;;;4.15;1.92;;;14.60;65.70;;;;;;4174292;28;20059;-70
2021/11/27 00:56:30;;;;;;;4.43;1.88;;;14.60;65.70;;;;;;4175485;28;20046;-68
2021/11/27 00:58:33;;;;;;;4.28;1.90;;;14.60;65.70;;;;;;4183813;28;20295;-68
2021/11/27 01:00:40;;;;;;;6.13;2.15;;;14.60;65.70;;;;;;4173725;28;20049;-70
2021/11/27 01:02:43;;;;;;;4.35;1.63;;;14.50;65.70;;;;;;4184464;28;20101;-67
2021/11/27 01:04:46;;;;;;;4.75;1.50;;;14.50;65.70;;;;;;4173146;28;20060;-69
2021/11/27 01:06:49;;;;;;;4.38;1.88;;;14.50;65.80;;;;;;4175174;28;20108;-70
2021/11/27 01:08:55;;;;;;;4.10;1.70;;;14.50;65.60;;;;;;4182897;28;20051;-67
2021/11/27 01:11:04;;;;;;;3.22;1.75;;;14.50;65.70;;;;;;4173132;28;20109;-69
2021/11/27 01:13:08;;;;;;;4.50;1.58;;;14.50;65.70;;;;;;4184546;28;20053;-68
2021/11/27 01:15:14;;;;;;;5.22;1.88;;;14.50;65.70;;;;;;4173213;28;20109;-67
2021/11/27 01:17:17;;;;;;;3.42;1.63;;;14.50;65.70;;;;;;4176055;28;20091;-70
2021/11/27 01:19:23;;;;;;;4.15;1.55;;;14.50;65.70;;;;;;4181793;28;20368;-70
2021/11/27 01:21:32;;;;;;;6.15;2.10;;;14.50;65.70;;;;;;4172931;28;20360;-69
2021/11/27 01:23:36;;;;;;;4.97;1.85;;;14.40;65.60;;;;;;4177809;28;20080;-67
2021/11/27 01:25:41;;;;;;;4.13;1.92;;;14.40;65.60;;;;;;4172975;28;20233;-68
2021/11/27 01:27:47;;;;;;;6.10;1.90;;;14.50;65.70;;;;;;4176934;28;20325;-68
2021/11/27 01:29:50;;;;;;;5.35;1.73;;;14.40;65.70;;;;;;4181838;28;20044;-68
2021/11/27 01:31:54;;;;;;;4.47;1.55;;;14.40;65.70;;;;;;4189200;28;20045;-69
2021/11/27 01:33:57;;;;;;;3.65;1.65;;;14.40;65.70;;;;;;4177561;28;20056;-70
2021/11/27 01:36:02;;;;;;;4.57;1.58;;;14.40;65.60;;;;;;4188986;28;20112;-69
2021/11/27 01:38:06;;;;;;;3.35;1.75;;;14.40;65.60;;;;;;4184565;28;20128;-69
2021/11/27 01:40:12;;;;;;;5.13;1.60;;;14.40;65.60;;;;;;4181050;28;20116;-70
2021/11/27 01:42:16;;;;;;;5.45;1.75;;;14.40;65.60;;;;;;4188020;28;20124;-70
2021/11/27 01:44:21;;;;;;;4.22;1.65;;;14.30;65.50;;;;;;4184871;28;20053;-70
2021/11/27 01:46:24;;;;;;;4.80;2.10;;;14.40;65.60;;;;;;4172877;28;20276;-68
2021/11/27 01:48:27;;;;;;;6.13;2.08;;;14.30;65.60;;;;;;4177201;28;20052;-71
2021/11/27 01:50:35;;;;;;;4.20;1.75;;;14.30;65.60;;;;;;4180247;28;20517;-67
2021/11/27 01:52:38;;;;;;;3.38;1.48;;;14.30;65.50;;;;;;4171860;28;20233;-67
2021/11/27 01:54:41;;;;;;;2.83;1.23;;;14.30;65.50;;;;;;4187281;28;20072;-68
2021/11/27 01:56:47;;;;;;;4.35;1.42;;;14.30;65.50;;;;;;4172570;28;20232;-68
2021/11/27 01:58:50;;;;;;;4.07;1.48;;;14.30;65.50;;;;;;4176561;28;20117;-68
2021/11/27 02:00:58;;;;;;;5.47;1.70;;;14.30;65.50;;;;;;4179686;28;20117;-69
2021/11/27 02:03:03;;;;;;;2.70;1.33;;;14.30;65.50;;;;;;4172666;28;20049;-69
2021/11/27 02:05:07;;;;;;;3.67;1.52;;;14.20;65.40;;;;;;4183935;28;20055;-70
2021/11/27 02:07:10;;;;;;;2.38;1.00;;;14.20;65.40;;;;;;4172121;28;20098;-69
2021/11/27 02:09:17;;;;;;;2.65;1.13;;;14.20;65.30;;;;;;4177002;28;20100;-68
2021/11/27 02:11:23;;;;;;;1.42;0.82;;;14.20;65.30;;;;;;4179056;28;20270;-70
2021/11/27 02:13:26;;;;;;;2.10;1.17;;;14.20;65.30;;;;;;4172611;28;20057;-68
2021/11/27 02:15:29;;;;;;;2.95;1.30;;;14.20;65.30;;;;;;4183259;28;20128;-70
2021/11/27 02:17:34;;;;;;;3.97;1.50;;;14.20;65.40;;;;;;4172245;28;20124;-70
2021/11/27 02:19:37;;;;;;;3.58;1.27;;;14.20;65.30;;;;;;4177060;28;20055;-69
2021/11/27 02:21:44;;;;;;;4.38;1.55;;;14.20;65.30;;;;;;4178948;28;20053;-70
2021/11/27 02:23:48;;;;;;;3.60;1.13;;;14.10;65.40;;;;;;4172908;28;20241;-70
2021/11/27 02:25:52;;;;;;;4.28;1.52;;;14.10;65.30;;;;;;4177135;28;20104;-69
2021/11/27 02:27:55;;;;;;;3.17;1.13;;;14.20;65.30;;;;;;4188702;28;20118;-68
2021/11/27 02:29:59;;;;;;;2.72;1.20;;;14.10;65.20;;;;;;4183064;28;20112;-71
2021/11/27 02:32:04;;;;;;;2.72;1.10;;;14.10;65.30;;;;;;4181835;28;20052;-69
2021/11/27 02:34:08;;;;;;;3.15;1.10;;;14.10;65.30;;;;;;4188531;28;20408;-68
2021/11/27 02:36:11;;;;;;;3.28;1.48;;;14.10;65.30;;;;;;4177985;28;20241;-67
2021/11/27 02:38:16;;;;;;;4.20;1.35;;;14.10;65.20;;;;;;4188812;28;20212;-70
2021/11/27 02:40:19;;;;;;;2.65;1.20;;;14.10;65.30;;;;;;4182827;28;20045;-70
2021/11/27 02:42:22;;;;;;;3.35;1.42;;;14.10;65.20;;;;;;4182180;28;20117;-73
2021/11/27 02:44:29;;;;;;;3.75;1.15;;;14.10;65.30;;;;;;4188446;28;20059;-67
2021/11/27 02:46:32;;;;;;;4.68;1.30;;;14.10;65.30;;;;;;4173464;28;20049;-68
2021/11/27 02:48:36;;;;;;;3.53;1.27;;;14.00;65.20;;;;;;4188298;28;20341;-69
2021/11/27 02:50:39;;;;;;;1.98;1.00;;;14.00;65.20;;;;;;4183845;28;20040;-67
2021/11/27 02:52:43;;;;;;;3.58;1.35;;;14.00;65.20;;;;;;4178291;28;20125;-68
2021/11/27 02:54:47;;;;;;;2.88;1.15;;;14.00;65.30;;;;;;4171959;28;20056;-68
2021/11/27 02:56:51;;;;;;;4.13;1.48;;;14.10;65.30;;;;;;4183162;28;20116;-68
2021/11/27 02:58:54;;;;;;;2.70;1.10;;;14.00;65.20;;;;;;4171597;28;20053;-67
2021/11/27 03:01:00;;;;;;;2.35;1.33;;;14.00;65.20;;;;;;4176518;28;20108;-70
2021/11/27 03:03:04;;;;;;;3.55;1.20;;;14.00;65.20;;;;;;4178427;28;20065;-69
2021/11/27 03:05:08;;;;;;;3.22;0.90;;;14.00;65.10;;;;;;4174197;28;20079;-68
2021/11/27 03:07:11;;;;;;;2.10;0.90;;;14.00;65.20;;;;;;4186327;28;20063;-71
2021/11/27 03:09:16;;;;;;;4.47;1.45;;;14.00;65.20;;;;;;4175009;28;20049;-69
2021/11/27 03:11:21;;;;;;;3.88;1.40;;;14.00;65.30;;;;;;4179836;28;20108;-70
2021/11/27 03:13:26;;;;;;;2.20;1.10;;;14.00;65.10;;;;;;4181343;28;20049;-70
2021/11/27 03:15:29;;;;;;;3.05;1.25;;;13.90;65.20;;;;;;4175665;28;20064;-70
2021/11/27 03:17:32;;;;;;;2.80;1.15;;;13.90;65.80;;;;;;4186306;28;20127;-70
2021/11/27 03:19:38;;;;;;;3.22;1.50;;;13.90;65.10;;;;;;4175016;28;20186;-69
2021/11/27 03:21:42;;;;;;;2.92;1.00;;;13.90;65.20;;;;;;4180373;28;20064;-70
2021/11/27 03:23:45;;;;;;;2.03;0.80;;;13.90;65.10;;;;;;4180834;28;20128;-70
2021/11/27 03:25:48;;;;;;;1.77;0.90;;;13.90;65.10;;;;;;4175303;28;20075;-69
2021/11/27 03:27:53;;;;;;;3.60;1.40;;;13.90;65.10;;;;;;4180022;28;20350;-67
2021/11/27 03:29:56;;;;;;;2.03;1.17;;;13.90;65.10;;;;;;4191774;28;20053;-69
2021/11/27 03:32:03;;;;;;;3.15;1.13;;;13.90;65.10;;;;;;4186411;28;20330;-70
2021/11/27 03:34:06;;;;;;;2.55;1.00;;;13.90;65.10;;;;;;4184718;28;20048;-67
2021/11/27 03:36:10;;;;;;;2.85;1.00;;;13.90;65.00;;;;;;4190548;28;20136;-67
2021/11/27 03:38:13;;;;;;;2.10;1.00;;;13.90;65.00;;;;;;4179478;28;20345;-67
2021/11/27 03:40:17;;;;;;;2.03;1.17;;;13.90;65.10;;;;;;4190875;28;20869;-67
2021/11/27 03:42:20;;;;;;;2.65;0.82;;;13.90;65.10;;;;;;4185390;28;20104;-68
2021/11/27 03:44:25;;;;;;;3.75;1.25;;;13.90;64.90;;;;;;4183556;28;20112;-68
2021/11/27 03:46:28;;;;;;;3.30;1.00;;;13.90;64.90;;;;;;4190764;28;20116;-70
2021/11/27 03:48:33;;;;;;;2.58;0.90;;;13.90;65.00;;;;;;4178852;28;20120;-67
2021/11/27 03:50:40;;;;;;;2.33;0.82;;;13.80;64.90;;;;;;4191004;28;20059;-69
2021/11/27 03:52:43;;;;;;;2.47;1.13;;;13.80;65.00;;;;;;4183863;28;20049;-69
2021/11/27 03:54:48;;;;;;;1.98;0.90;;;13.80;64.90;;;;;;4184021;28;20059;-68
2021/11/27 03:56:52;;;;;;;1.98;0.90;;;13.80;64.90;;;;;;4189953;28;20048;-68
2021/11/27 03:58:56;;;;;;;3.53;1.20;;;13.80;64.90;;;;;;4179122;28;20108;-67
2021/11/27 04:01:37;;;;;;;2.20;0.93;;;13.80;64.90;;;;;;4190408;28;20333;-70
2021/11/27 04:03:43;;;;;;;2.83;0.90;;;13.80;64.90;;;;;;4178433;28;20063;-68
2021/11/27 04:05:49;;;;;;;2.47;1.05;;;13.80;64.90;;;;;;4189188;28;20053;-68
2021/11/27 04:07:55;;;;;;;2.15;0.77;;;13.80;65.10;;;;;;4188138;28;20056;-70
2021/11/27 04:09:58;;;;;;;2.80;1.00;;;13.70;64.80;;;;;;4181906;28;20098;-70
2021/11/27 04:12:01;;;;;;;3.25;1.13;;;13.70;64.80;;;;;;4190848;28;20199;-70
2021/11/27 04:14:05;;;;;;;2.50;0.90;;;13.70;64.80;;;;;;4179336;28;20368;-71
2021/11/27 04:16:08;;;;;;;2.25;0.88;;;13.70;64.80;;;;;;4188372;28;20059;-70
2021/11/27 04:18:12;;;;;;;3.35;1.10;;;13.70;64.80;;;;;;4187899;28;20116;-69
2021/11/27 04:20:17;;;;;;;3.35;1.13;;;13.70;64.60;;;;;;4180577;28;20048;-67
2021/11/27 04:22:20;;;;;;;2.67;1.00;;;13.70;64.70;;;;;;4190435;28;20055;-68
2021/11/27 04:24:23;;;;;;;4.78;1.00;;;13.70;64.70;;;;;;4179377;28;20053;-69
2021/11/27 04:26:26;;;;;;;2.15;0.90;;;13.70;64.50;;;;;;4188790;28;20059;-70
2021/11/27 04:28:30;;;;;;;1.38;0.90;;;13.70;64.50;;;;;;4188273;28;20063;-67
2021/11/27 04:30:34;;;;;;;2.80;0.82;;;13.70;64.70;;;;;;4179777;28;20115;-67
2021/11/27 04:32:37;;;;;;;4.25;1.00;;;13.60;64.80;;;;;;4190416;28;20224;-68
2021/11/27 04:34:41;;;;;;;1.83;0.93;;;13.70;64.60;;;;;;4179558;28;20276;-68
2021/11/27 04:36:46;;;;;;;2.45;0.98;;;13.60;64.50;;;;;;4188138;28;20316;-68
2021/11/27 04:38:49;;;;;;;4.25;1.10;;;13.60;64.50;;;;;;4188173;28;20053;-69
2021/11/27 04:40:53;;;;;;;2.75;1.27;;;13.60;64.50;;;;;;4179332;28;20337;-69
2021/11/27 04:42:56;;;;;;;3.60;1.30;;;13.60;64.50;;;;;;4189912;28;20119;-69
2021/11/27 04:44:59;;;;;;;2.50;1.00;;;13.60;64.40;;;;;;4179940;28;20108;-69
2021/11/27 04:47:02;;;;;;;1.75;1.00;;;13.60;64.40;;;;;;4187670;28;20053;-68
2021/11/27 04:49:05;;;;;;;3.58;1.35;;;13.60;64.40;;;;;;4188330;28;20070;-70
2021/11/27 04:51:08;;;;;;;3.15;1.00;;;13.60;64.50;;;;;;4179163;28;20124;-67
2021/11/27 04:53:14;;;;;;;4.27;1.00;;;13.60;64.40;;;;;;4189716;28;20340;-69
2021/11/27 04:55:18;;;;;;;3.50;1.08;;;13.60;64.50;;;;;;4185922;28;20053;-68
2021/11/27 04:57:21;;;;;;;3.40;1.10;;;13.60;64.40;;;;;;4176449;28;20060;-69
2021/11/27 04:59:24;;;;;;;2.20;0.90;;;13.50;64.40;;;;;;4174849;28;20207;-67
2021/11/27 05:01:27;;;;;;;2.17;0.88;;;13.50;64.40;;;;;;4184343;28;20330;-69
2021/11/27 05:03:31;;;;;;;2.85;0.98;;;13.50;64.40;;;;;;4173215;28;20322;-68
2021/11/27 05:05:34;;;;;;;4.30;1.42;;;13.50;64.40;;;;;;4182056;28;20049;-69
2021/11/27 05:07:37;;;;;;;3.72;1.35;;;13.50;64.40;;;;;;4176307;28;20049;-69
2021/11/27 05:09:42;;;;;;;3.15;0.95;;;13.50;64.40;;;;;;4174377;28;20041;-69
2021/11/27 05:11:45;;;;;;;3.00;0.85;;;13.50;64.20;;;;;;4183906;28;20052;-68
2021/11/27 05:13:49;;;;;;;4.25;0.90;;;13.40;64.30;;;;;;4172904;28;20121;-68
2021/11/27 05:15:52;;;;;;;3.60;1.23;;;13.50;64.30;;;;;;4181301;28;20412;-70
2021/11/27 05:17:55;;;;;;;4.10;0.98;;;13.50;64.30;;;;;;4176136;28;20049;-70
2021/11/27 05:19:58;;;;;;;3.65;1.00;;;13.40;64.40;;;;;;4174079;28;20056;-69
2021/11/27 05:22:01;;;;;;;2.15;0.98;;;13.50;64.20;;;;;;4183952;28;20119;-69
2021/11/27 05:24:05;;;;;;;5.85;1.13;;;13.40;64.30;;;;;;4172899;28;20139;-68
2021/11/27 05:26:09;;;;;;;3.13;1.00;;;13.40;64.20;;;;;;4180443;28;20055;-68
2021/11/27 05:28:12;;;;;;;4.13;0.90;;;13.40;64.20;;;;;;4176682;28;20260;-69
2021/11/27 05:30:15;;;;;;;4.80;0.90;;;13.40;64.20;;;;;;4173898;28;20112;-69
2021/11/27 05:32:38;;;;;;;3.00;1.00;;;13.40;64.20;;;;;;4183522;28;20056;-69
2021/11/27 05:34:41;;;;;;;2.15;1.00;;;13.40;63.90;;;;;;4172622;28;20055;-68
2021/11/27 05:36:45;;;;;;;3.85;1.25;;;13.40;64.00;;;;;;4182573;28;20057;-68
2021/11/27 05:38:48;;;;;;;4.07;1.38;;;13.40;64.20;;;;;;4174415;28;20053;-69
2021/11/27 05:40:53;;;;;;;4.72;1.70;;;13.40;64.20;;;;;;4173959;28;20053;-70
2021/11/27 05:42:58;;;;;;;4.38;1.23;;;13.40;64.10;;;;;;4183777;28;20105;-68
2021/11/27 05:45:00;;;;;;;;;;;13.40;64.10;;;;;;4173790;28;20265;-68
2021/11/27 05:47:03;;;;;;;3.53;1.17;;;13.30;64.00;;;;;;4182611;28;19920;-70
2021/11/27 05:49:06;;;;;;;4.68;1.38;;;13.30;64.00;;;;;;4174641;28;20057;-69
2021/11/27 05:51:09;;;;;;;4.05;1.42;;;13.30;63.90;;;;;;4173511;28;20444;-69
2021/11/27 05:53:13;;;;;;;3.92;1.38;;;13.30;63.90;;;;;;4177783;28;20108;-70
2021/11/27 05:55:16;;;;;;;3.88;1.00;;;13.30;64.10;;;;;;4189089;28;20049;-68
2021/11/27 05:57:19;;;;;;;5.80;1.30;;;13.30;64.10;;;;;;4184451;28;20120;-70
2021/11/27 05:59:24;;;;;;;4.20;1.35;;;13.30;64.00;;;;;;4174989;28;20041;-69
2021/11/27 06:01:27;;;;;;;4.70;1.33;;;13.30;64.10;;;;;;4173541;28;20049;-69
2021/11/27 06:03:30;;;;;;;4.45;1.25;;;13.30;64.10;;;;;;4183284;28;20053;-68
2021/11/27 06:05:33;;;;;;;5.45;1.40;;;13.30;64.00;;;;;;4172096;28;20060;-68
2021/11/27 06:07:36;;;;;;;2.97;1.00;;;13.30;63.90;;;;;;4180823;28;20057;-69
2021/11/27 06:09:39;;;;;;;4.20;1.10;;;13.30;64.20;;;;;;4175376;28;20057;-69
2021/11/27 06:11:42;;;;;;;3.58;0.98;;;13.30;64.10;;;;;;4173178;28;20108;-70
2021/11/27 06:13:45;;;;;;;2.75;1.02;;;13.30;64.00;;;;;;4183095;28;20106;-67
2021/11/27 06:15:50;;;;;;;4.20;1.48;;;13.20;64.00;;;;;;4171971;28;20147;-67
2021/11/27 06:17:53;;;;;;;4.22;1.23;;;13.20;64.00;;;;;;4180037;28;20112;-68
2021/11/27 06:19:56;;;;;;;3.83;1.25;;;13.20;63.90;;;;;;4176070;28;20057;-68
2021/11/27 06:21:59;;;;;;;3.38;1.25;;;13.30;64.00;;;;;;4173008;28;20044;-67
2021/11/27 06:24:03;;;;;;;3.45;1.42;;;13.20;64.00;;;;;;4183016;28;20049;-69
2021/11/27 06:26:06;;;;;;;4.03;1.33;;;13.20;63.80;;;;;;4171826;28;20351;-71
2021/11/27 06:28:09;;;;;;;2.15;1.05;;;13.20;63.70;;;;;;4179531;28;20053;-70
2021/11/27 06:30:12;;;;;;;4.90;1.30;;;13.20;63.90;;;;;;4177081;28;20056;-70
2021/11/27 06:32:22;;;;;;;3.63;1.55;;;13.20;63.90;;;;;;4173938;28;20117;-71
2021/11/27 06:34:25;;;;;;;4.78;1.35;;;13.20;63.90;;;;;;4187179;28;20048;-67
2021/11/27 06:36:28;;;;;;;3.90;1.23;;;13.20;63.80;;;;;;4188566;28;20049;-67
2021/11/27 06:38:31;;;;;;;6.80;1.77;;;13.20;63.70;;;;;;4185475;28;20055;-68
2021/11/27 06:40:34;;;;;;;5.10;1.52;;;13.20;63.80;;;;;;4176164;28;20052;-69
2021/11/27 06:42:37;;;;;;;4.15;1.33;;;13.20;63.90;;;;;;4173309;28;20052;-68
2021/11/27 06:44:46;;;;;;;4.20;1.20;;;13.20;63.80;;;;;;4183044;28;20107;-70
2021/11/27 06:46:49;;;;;;;3.17;1.10;;;13.20;63.80;;;;;;4171677;28;20116;-69
2021/11/27 06:48:54;;;;;;;3.63;1.38;;;13.20;63.90;;;;;;4179439;28;20432;-70
2021/11/27 06:50:57;;;;;;;4.22;1.05;;;13.20;63.70;;;;;;4175892;28;20087;-68
2021/11/27 06:53:01;;;;;;;3.70;1.40;;;13.10;63.80;;;;;;4172859;28;20108;-70
2021/11/27 06:55:05;;;;;;;4.85;1.50;;;13.10;63.80;;;;;;4182749;28;20046;-70
2021/11/27 06:57:09;;;;;;;6.80;1.35;;;13.10;63.80;;;;;;4171632;28;20405;-71
2021/11/27 06:59:12;;;;;;;4.57;1.20;;;13.10;63.80;;;;;;4179132;28;20080;-68
2021/11/27 07:01:15;;;;;;;6.07;1.42;;;13.10;63.70;;;;;;4175943;28;20112;-69
2021/11/27 07:03:19;;;;;;;4.68;1.60;;;13.10;63.80;;;;;;4172932;28;20060;-67
2021/11/27 07:05:23;;;;;;;5.70;1.80;;;13.10;63.70;;;;;;4182400;28;20076;-67
2021/11/27 07:07:26;;;;;;;5.93;1.85;;;13.10;63.90;;;;;;4171847;28;20410;-68
2021/11/27 07:09:29;;;;;;;4.07;1.42;;;13.10;63.60;;;;;;4178662;28;20067;-69
2021/11/27 07:11:32;;;;;;;3.47;1.33;;;13.10;63.60;;;;;;4176163;28;20084;-70
2021/11/27 07:13:35;;;;;;;5.70;1.95;;;13.10;63.70;;;;;;4172568;28;20053;-69
2021/11/27 07:15:38;;;;;;;5.75;1.50;;;13.10;64.00;;;;;;4183358;28;20057;-68
2021/11/27 07:17:41;;;;;;;6.78;1.42;;;13.10;64.70;;;;;;4172513;28;20053;-72
2021/11/27 07:19:44;;;;;;;4.60;1.30;;;13.10;64.00;;;;;;4178310;28;20044;-67
2021/11/27 07:21:48;;;;;;;6.25;1.60;;;13.10;63.90;;;;;;4177156;28;20120;-69
2021/11/27 07:23:52;;;;;;;3.55;1.20;;;13.10;63.90;;;;;;4172760;28;20060;-71
2021/11/27 07:25:55;;;;;;;2.97;1.00;;;13.10;64.00;;;;;;4182254;28;20121;-70
2021/11/27 07:27:58;;;;;;;5.78;1.52;;;13.00;63.80;;;;;;4172295;28;20050;-70
2021/11/27 07:30:01;;;;;;;4.70;1.42;;;13.00;63.80;;;;;;4178132;28;20069;-68
2021/11/27 07:32:05;;;;;;;4.82;1.42;;;13.10;63.90;;;;;;4177322;28;20280;-68
2021/11/27 07:34:08;;;;;;;4.30;1.63;;;13.10;64.00;;;;;;4172376;28;20056;-69
2021/11/27 07:36:11;;;;;;;2.72;1.10;;;13.10;64.40;;;;;;4176412;28;20056;-67
2021/11/27 07:38:15;;;;;;;4.03;1.27;;;13.10;64.10;;;;;;4188042;28;20048;-69
2021/11/27 07:40:18;;;;;;;5.18;1.58;;;13.00;64.00;;;;;;4182200;28;20053;-67
2021/11/27 07:42:21;;;;;;;2.72;1.02;;;13.00;64.10;;;;;;4181059;28;20113;-70
2021/11/27 07:44:24;;;;;;;3.88;1.25;;;13.00;64.00;;;;;;4186290;28;20049;-70
2021/11/27 07:46:29;;;;;;;4.22;1.10;;;13.00;64.10;;;;;;4175731;28;20114;-66
2021/11/27 07:48:32;;;;;;;3.85;1.35;;;13.00;64.10;;;;;;4187961;28;20120;-70
2021/11/27 07:50:35;;;;;;;4.10;1.65;;;13.00;64.10;;;;;;4182547;28;20053;-67
2021/11/27 07:52:38;;;;;;;2.72;1.20;;;13.00;64.10;;;;;;4183259;28;20059;-70
2021/11/27 07:54:42;;;;;;;4.75;1.27;;;13.00;64.10;;;;;;4190542;28;20132;-69
2021/11/27 07:56:46;;;;;;;3.03;1.17;;;13.00;64.10;;;;;;4189151;28;20056;-71
2021/11/27 07:58:49;;;;;;;3.30;1.27;;;12.90;64.10;;;;;;4174474;28;20059;-70
2021/11/27 08:00:52;;;;;;;2.58;0.82;;;13.00;64.30;;;;;;4178951;28;20112;-70
2021/11/27 08:02:55;;;;;;;3.80;1.10;;;13.00;64.30;;;;;;4182473;28;20041;-71
2021/11/27 08:04:58;;;;;;;2.55;1.00;;;13.00;64.20;;;;;;4175126;28;20052;-73
2021/11/27 08:07:01;;;;;;;3.90;1.20;;;12.90;64.30;;;;;;4178997;28;20108;-70
2021/11/27 08:09:04;;;;;;;3.80;1.00;;;12.90;64.30;;;;;;4173802;28;20137;-68
2021/11/27 08:11:10;;;;;;;3.20;1.10;;;12.90;64.20;;;;;;4177985;28;20113;-69
2021/11/27 08:13:13;;;;;;;2.40;1.00;;;13.00;64.60;;;;;;4182195;28;20049;-69
2021/11/27 08:15:16;;;;;;;3.15;1.10;;;12.90;64.20;;;;;;4173684;28;20076;-67
2021/11/27 08:17:19;;;;;;;1.75;0.90;;;12.90;64.20;;;;;;4185912;28;20409;-68
2021/11/27 08:19:22;;;;;;;3.88;1.00;;;12.90;64.20;;;;;;4174057;28;20112;-70
2021/11/27 08:21:25;;;;;;;3.00;1.00;;;12.90;64.30;;;;;;4178150;28;20120;-67
2021/11/27 08:23:29;;;;;;;2.50;1.27;;;12.90;64.60;;;;;;4181551;28;20053;-69
2021/11/27 08:25:32;;;;;;;1.92;0.70;;;12.90;64.60;;;;;;4190198;28;20049;-68
2021/11/27 08:27:38;;;;;;;3.40;1.30;;;12.90;64.60;;;;;;4178438;28;20053;-68
2021/11/27 08:29:42;;;;;;;2.53;1.05;;;12.90;64.40;;;;;;4189987;28;20055;-67
2021/11/27 08:31:46;;;;;;;2.05;0.80;;;12.90;64.40;;;;;;4186966;28;20098;-69
2021/11/27 08:33:49;;;;;;;3.22;1.15;;;12.90;64.40;;;;;;4181324;28;20384;-70
2021/11/27 08:35:52;;;;;;;3.05;1.00;;;12.90;64.60;;;;;;4190120;28;20108;-67
2021/11/27 08:37:55;;;;;;;2.55;0.90;;;12.90;64.50;;;;;;4178342;28;20049;-70
2021/11/27 08:39:59;;;;;;;2.67;0.88;;;12.90;65.00;;;;;;4189379;28;20071;-70
2021/11/27 08:42:03;;;;;;;3.20;0.70;;;12.90;64.50;;;;;;4187150;28;20278;-70
2021/11/27 08:44:07;;;;;;;1.17;0.70;;;12.90;64.50;;;;;;4180431;28;20056;-70
2021/11/27 08:46:10;;;;;;;2.22;0.82;;;12.90;64.60;;;;;;4190261;28;20059;-68
2021/11/27 08:48:13;;;;;;;2.17;0.90;;;12.80;64.50;;;;;;4179438;28;20128;-66
2021/11/27 08:50:16;;;;;;;1.48;0.70;;;12.90;64.40;;;;;;4189677;28;20049;-66
2021/11/27 08:52:19;;;;;;;4.05;0.95;;;12.90;65.00;;;;;;4187690;28;20333;-65
2021/11/27 08:54:22;;;;;;;3.58;0.70;;;12.80;64.60;;;;;;4179766;28;20053;-67
2021/11/27 08:56:25;;;;;;;1.20;0.77;;;12.80;64.90;;;;;;4189919;28;20071;-69
2021/11/27 08:58:28;;;;;;;2.22;1.00;;;12.80;64.60;;;;;;4179260;28;20117;-69
2021/11/27 09:00:33;;;;;;;2.28;0.90;;;12.80;64.80;;;;;;4186904;28;20076;-69
2021/11/27 09:02:36;;;;;;;1.55;0.80;;;12.80;66.10;;;;;;4187509;28;20111;-66
2021/11/27 09:04:39;;;;;;;2.80;0.85;;;12.70;65.40;;;;;;4179142;28;20051;-67
2021/11/27 09:06:42;;;;;;;6.82;1.13;;;12.80;65.40;;;;;;4189790;28;20132;-68
2021/11/27 09:08:46;;;;;;;2.95;0.98;;;12.70;66.30;;;;;;4179677;28;20061;-69
2021/11/27 09:10:49;;;;;;;4.50;0.93;;;12.70;66.80;;;;;;4186831;28;20057;-67
2021/11/27 09:12:52;;;;;;;3.58;0.90;;;12.70;67.00;;;;;;4185945;28;20045;-67
2021/11/27 09:14:56;;;;;;;21.75;6.47;;;12.70;66.90;;;;;;4178089;28;20049;-67
2021/11/27 09:17:01;;;;;;;9.07;3.03;;;12.70;67.90;;;;;;4189438;28;20345;-71
2021/11/27 09:19:06;;;;;;;8.65;2.67;;;12.70;67.80;;;;;;4185128;28;20108;-66
2021/11/27 09:21:09;;;;;;;6.93;1.80;;;12.70;67.30;;;;;;4175272;28;20059;-68
2021/11/27 09:23:12;;;;;;;8.32;1.27;;;12.70;67.60;;;;;;4173776;28;20046;-71
2021/11/27 09:25:15;;;;;;;4.95;1.67;;;12.70;68.20;;;;;;4183942;28;20116;-71
2021/11/27 09:27:18;;;;;;;6.00;1.38;;;12.70;68.70;;;;;;4173009;28;20053;-71
2021/11/27 09:29:21;;;;;;;7.80;1.25;;;12.70;68.40;;;;;;4181580;28;20451;-65
2021/11/27 09:31:24;;;;;;;4.40;1.42;;;12.80;68.30;;;;;;4174924;28;20057;-69
2021/11/27 09:33:29;;;;;;;7.45;1.00;;;12.80;68.30;;;;;;4174458;28;20051;-70
2021/11/27 09:35:32;;;;;;;3.78;1.00;;;12.80;68.20;;;;;;4188460;28;20044;-72
2021/11/27 09:37:36;;;;;;;3.83;1.00;;;12.90;68.10;;;;;;4188554;28;20049;-68
2021/11/27 09:39:41;;;;;;;8.57;1.00;;;12.90;68.00;;;;;;4180527;28;20058;-67
2021/11/27 09:41:46;;;;;;;3.33;1.33;;;13.00;68.00;;;;;;4185804;28;20240;-68
2021/11/27 09:43:50;;;;;;;6.22;1.10;;;13.10;67.60;;;;;;4187345;28;20051;-71
2021/11/27 09:45:55;;;;;;;3.55;1.33;;;13.10;67.90;;;;;;4177769;28;20076;-71
2021/11/27 09:47:59;;;;;;;3.50;1.38;;;13.20;67.90;;;;;;4189132;28;20069;-71
2021/11/27 09:50:06;;;;;;;2.40;1.10;;;13.20;67.70;;;;;;4179739;28;20124;-70
2021/11/27 09:52:10;;;;;;;4.25;0.98;;;13.20;67.60;;;;;;4186574;28;20057;-71
2021/11/27 09:54:17;;;;;;;6.15;1.00;;;13.20;67.50;;;;;;4187631;28;20304;-68
2021/11/27 09:56:21;;;;;;;2.85;1.30;;;13.30;67.60;;;;;;4177107;28;20414;-69
2021/11/27 09:58:24;;;;;;;;;;;13.30;67.80;;;;;;4189514;28;20352;-67
2021/11/27 10:00:27;;;;;;;4.32;0.80;;;13.40;67.80;;;;;;4176527;28;20155;-71
2021/11/27 10:02:31;;;;;;;10.43;1.30;;;13.40;67.50;;;;;;4186079;28;20059;-68
2021/11/27 10:04:54;;;;;;;3.53;1.30;;;13.40;67.50;;;;;;4185207;28;20044;-66
2021/11/27 10:06:59;;;;;;;;;;;13.40;67.50;;;;;;4180752;28;20049;-70
2021/11/27 10:09:06;;;;;;;2.72;0.85;;;13.50;67.40;;;;;;4188922;28;19988;-70
2021/11/27 10:11:09;;;;;;;5.30;0.73;;;13.50;67.30;;;;;;4176596;28;20057;-70
2021/11/27 10:13:16;;;;;;;3.20;0.70;;;13.50;67.50;;;;;;4188626;28;20119;-70
2021/11/27 10:15:19;;;;;;;4.30;1.00;;;13.60;67.40;;;;;;4183418;28;20077;-67
2021/11/27 10:17:22;;;;;;;3.45;1.05;;;13.70;67.70;;;;;;4180441;28;20244;-67
2021/11/27 10:19:27;;;;;;;4.40;1.00;;;13.80;67.80;;;;;;4189347;28;20329;-71
2021/11/27 10:21:32;;;;;;;4.15;0.85;;;13.90;68.00;;;;;;4178205;28;20345;-72
2021/11/27 10:23:38;;;;;;;11.52;1.20;;;13.90;67.80;;;;;;4189528;28;20270;-70
2021/11/27 10:25:42;;;;;;;2.47;0.85;;;13.90;67.30;;;;;;4183262;28;20049;-68
2021/11/27 10:27:45;;;;;;;16.30;1.50;;;13.90;67.30;;;;;;4180896;28;20116;-73
2021/11/27 10:30:05;;;;;;;24.10;1.50;;;14.00;67.80;;;;;;4188728;28;20112;-65
2021/11/27 10:32:10;;;;;;;30.63;5.30;;;14.00;68.50;;;;;;4185508;28;20116;-71
2021/11/27 10:34:22;;;;;;;;;;;14.10;68.70;;;;;;4189061;28;20351;-74
2021/11/27 10:36:38;;;;;;;29.35;5.50;;;14.20;68.90;;;;;;4182985;28;19920;-71
2021/11/27 10:38:44;;;;;;;20.80;3.88;;;14.20;69.20;;;;;;4174774;28;20075;-65
2021/11/27 10:40:56;;;;;;;30.80;4.07;;;14.30;68.90;;;;;;4172064;28;20065;-72
2021/11/27 10:43:04;;;;;;;16.48;3.67;;;14.30;68.80;;;;;;4178537;28;20052;-72
2021/11/27 10:45:13;;;;;;;15.23;2.75;;;14.40;68.60;;;;;;4187907;28;20075;-67
2021/11/27 10:47:17;;;;;;;14.75;2.10;;;14.40;68.50;;;;;;4180197;28;20048;-67